PolandFixed distance
Sudecka Setka - 100 km Boguszów Gorce
23–24 Jun2017
Distance
100km
Finishers
205180 men25 women
Winning time
9:10:03h
Median pace
7.24km/h
Pace distribution
205 finishers · 5.12–10.91 km/h · mean 7.33
Every finisher ran the same 100 km course, so these paces are directly comparable.
Histogram of finisher pace. 205 finishers ranged from 5.12 to 10.91 kilometres per hour, with a mean of 7.33 and a median of 7.24. The busiest band is 6.5 to 7.0 kilometres per hour, with 42 finishers.
Results
Ranks 1–50 of 205
| Rank | Runner | Time | Pace | Cat. | Placing |
|---|---|---|---|---|---|
| 1 | 9 Dywersyjna | 9:10:03h | 10.91 | M40 | 1st M · 1st M40 |
| 2 | Salco Garmin Team | 9:15:41h | 10.80 | M23 | 2nd M · 1st M23 |
| 3 | Karkonosz Running Team... | 9:22:57h | 10.66 | M23 | 3rd M · 2nd M23 |
| 4 | KRS Tkkf Jastrząb Ruda... | 9:27:17h | 10.58 | M40 | 4th M · 2nd M40 |
| 5 | Team-Luks Żórawina-Wro... | 9:53:35h | 10.11 | M40 | 5th M · 3rd M40 |
| 6 | RH Swim Wrocław | 9:58:32h | 10.03 | M45 | 6th M · 1st M45 |
| 7 | *Puławy | 10:01:57h | 9.97 | M23 | 7th M · 3rd M23 |
| 8 | Podzamcze Wałbrzych | 10:20:05h | 9.68 | M35 | 8th M · 1st M35 |
| 9 | Wild Skunks | 10:38:24h | 9.40 | M40 | 9th M · 4th M40 |
| 10 | Mocni NA Starcie Żagań | 10:46:32h | 9.28 | M45 | 10th M · 2nd M45 |
| 11 | Grupa Jura PL | 10:48:39h | 9.25 | M35 | 11th M · 2nd M35 |
| 12 | KB Sobótka | 10:50:11h | 9.23 | M40 | 12th M · 5th M40 |
| 13 | Sudeckie Wycieczki Bie... | 10:53:24h | 9.18 | M35 | 13th M · 3rd M35 |
| 14 | *Janowice Wielkie | 10:57:26h | 9.13 | M23 | 14th M · 4th M23 |
| 15 | *Katowice | 10:59:46h | 9.09 | M23 | 15th M · 5th M23 |
| 16 | *Wałbrzych | 11:01:24h | 9.07 | M23 | 16th M · 6th M23 |
| 17 | *Bielsko-Biała | 11:09:14h | 8.96 | M35 | 17th M · 4th M35 |
| 18 | *Bielany Wrocławskie | 11:14:52h | 8.89 | M45 | 18th M · 3rd M45 |
| 19 | *Chrzanów | 11:19:20h | 8.83 | M23 | 19th M · 7th M23 |
| 20 | *Nowa Ruda | 11:19:21h | 8.83 | M23 | 20th M · 8th M23 |
| 21 | Lesz NO Limits Runners | 11:22:51h | 8.79 | M23 | 21st M · 9th M23 |
| 22 | Viacon | 11:22:51h | 8.79 | M23 | 21st M · 9th M23 |
| 23 | *Puławy | 11:28:22h | 8.72 | M23 | 23rd M · 11th M23 |
| 24 | Judo Lemur | 11:28:22h | 8.72 | M35 | 23rd M · 5th M35 |
| 25 | *Warszawa | 11:29:47h | 8.70 | M23 | 25th M · 12th M23 |
| 26 | *Skórzewo | 11:32:51h | 8.66 | M45 | 26th M · 4th M45 |
| 27 | Biegowa Świdnica | 11:43:00h | 8.54 | M35 | 27th M · 6th M35 |
| 28 | *Świdnica | 11:44:13h | 8.52 | M45 | 28th M · 5th M45 |
| 29 | ZG Polkowice Sieroszowice | 11:45:24h | 8.51 | M55 | 29th M · 1st M55 |
| 30 | KS Metraco Polkowice | 11:45:30h | 8.51 | W35 | 1st F · 1st W35 |
| 31 | *Wrocław | 11:49:19h | 8.46 | M23 | 30th M · 13th M23 |
| 32 | *Czechowice-Dziedzice | 11:51:19h | 8.44 | W35 | 2nd F · 2nd W35 |
| 33 | Champion MEN Team | 11:54:38h | 8.40 | M23 | 31st M · 14th M23 |
| 34 | *Leszno | 12:01:26h | 8.32 | M45 | 32nd M · 6th M45 |
| 35 | *Wrocław | 12:03:36h | 8.29 | M35 | 33rd M · 7th M35 |
| 36 | Niepołomice Biegają | 12:05:35h | 8.27 | M35 | 34th M · 8th M35 |
| 37 | *Jawor | 12:07:06h | 8.25 | M45 | 35th M · 7th M45 |
| 38 | TT Szczecin | 12:08:22h | 8.24 | M23 | 36th M · 15th M23 |
| 39 | Grupa Biegowa Dzikowiec | 12:08:23h | 8.24 | W23 | 3rd F · 1st W23 |
| 40 | *Wąsosz K. Góry Śląskiej | 12:08:39h | 8.23 | W23 | 4th F · 2nd W23 |
| 41 | Siła Orga - Sobótka | 12:08:48h | 8.23 | M35 | 37th M · 9th M35 |
| 42 | WKU W Głogowie | 12:09:48h | 8.22 | M50 | 38th M · 1st M50 |
| 43 | Aletempo | 12:12:46h | 8.19 | M45 | 39th M · 8th M45 |
| 44 | KB Sobótka | 12:18:01h | 8.13 | M40 | 40th M · 6th M40 |
| 45 | Defendu | 12:24:13h | 8.06 | M23 | 41st M · 16th M23 |
| 46 | Cranberry Team | 12:27:54h | 8.02 | M23 | 42nd M · 17th M23 |
| 47 | Biegiem Przez Góry | 12:28:20h | 8.02 | M23 | 43rd M · 18th M23 |
| 48 | Biegiem Przez Góry | 12:28:22h | 8.02 | M23 | 44th M · 19th M23 |
| 49 | Niepołomice Biegają | 12:30:07h | 8.00 | W40 | 5th F · 1st W40 |
| 50 | #Kfd Fallout Team | 12:30:09h | 8.00 | M35 | 45th M · 10th M35 |
- 19 Dywersyjna1st M · 1st M40Time9:10:03hPace10.91Cat.M40
- 2Salco Garmin Team2nd M · 1st M23Time9:15:41hPace10.80Cat.M23
- 3Karkonosz Running Team...3rd M · 2nd M23Time9:22:57hPace10.66Cat.M23
- 4KRS Tkkf Jastrząb Ruda...4th M · 2nd M40Time9:27:17hPace10.58Cat.M40
- 5Team-Luks Żórawina-Wro...5th M · 3rd M40Time9:53:35hPace10.11Cat.M40
- 6RH Swim Wrocław6th M · 1st M45Time9:58:32hPace10.03Cat.M45
- 7*Puławy7th M · 3rd M23Time10:01:57hPace9.97Cat.M23
- 8Podzamcze Wałbrzych8th M · 1st M35Time10:20:05hPace9.68Cat.M35
- 9Wild Skunks9th M · 4th M40Time10:38:24hPace9.40Cat.M40
- 10Mocni NA Starcie Żagań10th M · 2nd M45Time10:46:32hPace9.28Cat.M45
- 11Grupa Jura PL11th M · 2nd M35Time10:48:39hPace9.25Cat.M35
- 12KB Sobótka12th M · 5th M40Time10:50:11hPace9.23Cat.M40
- 13Sudeckie Wycieczki Bie...13th M · 3rd M35Time10:53:24hPace9.18Cat.M35
- 14*Janowice Wielkie14th M · 4th M23Time10:57:26hPace9.13Cat.M23
- 15*Katowice15th M · 5th M23Time10:59:46hPace9.09Cat.M23
- 16*Wałbrzych16th M · 6th M23Time11:01:24hPace9.07Cat.M23
- 17*Bielsko-Biała17th M · 4th M35Time11:09:14hPace8.96Cat.M35
- 18*Bielany Wrocławskie18th M · 3rd M45Time11:14:52hPace8.89Cat.M45
- 19*Chrzanów19th M · 7th M23Time11:19:20hPace8.83Cat.M23
- 20*Nowa Ruda20th M · 8th M23Time11:19:21hPace8.83Cat.M23
- 21Lesz NO Limits Runners21st M · 9th M23Time11:22:51hPace8.79Cat.M23
- 22Viacon21st M · 9th M23Time11:22:51hPace8.79Cat.M23
- 23*Puławy23rd M · 11th M23Time11:28:22hPace8.72Cat.M23
- 24Judo Lemur23rd M · 5th M35Time11:28:22hPace8.72Cat.M35
- 25*Warszawa25th M · 12th M23Time11:29:47hPace8.70Cat.M23
- 26*Skórzewo26th M · 4th M45Time11:32:51hPace8.66Cat.M45
- 27Biegowa Świdnica27th M · 6th M35Time11:43:00hPace8.54Cat.M35
- 28*Świdnica28th M · 5th M45Time11:44:13hPace8.52Cat.M45
- 29ZG Polkowice Sieroszowice29th M · 1st M55Time11:45:24hPace8.51Cat.M55
- 30KS Metraco Polkowice1st F · 1st W35Time11:45:30hPace8.51Cat.W35
- 31*Wrocław30th M · 13th M23Time11:49:19hPace8.46Cat.M23
- 32*Czechowice-Dziedzice2nd F · 2nd W35Time11:51:19hPace8.44Cat.W35
- 33Champion MEN Team31st M · 14th M23Time11:54:38hPace8.40Cat.M23
- 34*Leszno32nd M · 6th M45Time12:01:26hPace8.32Cat.M45
- 35*Wrocław33rd M · 7th M35Time12:03:36hPace8.29Cat.M35
- 36Niepołomice Biegają34th M · 8th M35Time12:05:35hPace8.27Cat.M35
- 37*Jawor35th M · 7th M45Time12:07:06hPace8.25Cat.M45
- 38TT Szczecin36th M · 15th M23Time12:08:22hPace8.24Cat.M23
- 39Grupa Biegowa Dzikowiec3rd F · 1st W23Time12:08:23hPace8.24Cat.W23
- 40*Wąsosz K. Góry Śląskiej4th F · 2nd W23Time12:08:39hPace8.23Cat.W23
- 41Siła Orga - Sobótka37th M · 9th M35Time12:08:48hPace8.23Cat.M35
- 42WKU W Głogowie38th M · 1st M50Time12:09:48hPace8.22Cat.M50
- 43Aletempo39th M · 8th M45Time12:12:46hPace8.19Cat.M45
- 44KB Sobótka40th M · 6th M40Time12:18:01hPace8.13Cat.M40
- 45Defendu41st M · 16th M23Time12:24:13hPace8.06Cat.M23
- 46Cranberry Team42nd M · 17th M23Time12:27:54hPace8.02Cat.M23
- 47Biegiem Przez Góry43rd M · 18th M23Time12:28:20hPace8.02Cat.M23
- 48Biegiem Przez Góry44th M · 19th M23Time12:28:22hPace8.02Cat.M23
- 49Niepołomice Biegają5th F · 1st W40Time12:30:07hPace8.00Cat.W40
- 50#Kfd Fallout Team45th M · 10th M35Time12:30:09hPace8.00Cat.M35
Showing ranks 1–50 of 205